Riverside, CA (92509)

9:31 PM PST on February 27, 2015 (GMT -0800)
Indian Hills | Change Station
CLOSE
Current Station
Personal Weather Station
Location: Riverside, CA
Elevation: 1070 ft
Nearby Weather Stations

Elev 1070 ft 33.99 °N, 117.45 °W | Updated 3 minutes ago

Overcast
Overcast
55.0 °F
Feels Like 55.0 °F
N
7.0
Wind Variable Wind from North
Gusts 10.0 mph

Today
High -- | Low -- °F
--% Chance of Precip.
Yesterday
High -- | Low -- °F
Precip. -- in
6:21 AM 5:44 PM
Waxing Gibbous, 74% visible
Pressure 29.73 in
Visibility 10.0 miles
Clouds Overcast 3400 ft
Dew Point 52 °F
Humidity 89%
Rainfall 0.00 in
Snow Depth Not available.
UV 0 out of 12
Pollen 8.60 out of 12
Air Quality Not available.
Flu Activity Not available.
METAR KRAL 280453Z AUTO 28006KT 10SM OVC034 14/11 A2977 RMK AO2 SLP068 T01440106

More Conditions Fewer Conditions

Pressure 29.73 in
Visibility 10.0 miles
Clouds Overcast 3400 ft
Dew Point 52 °F
Humidity 89%
Rainfall 0.00 in
Snow Depth Not available.
UV 0 out of 12
Pollen 8.60 out of 12
Air Quality Not available.
Flu Activity Not available.
METAR KRAL 280453Z AUTO 28006KT 10SM OVC034 14/11 A2977 RMK AO2 SLP068 T01440106

More Conditions Fewer Conditions

10-Day Weather Forecast

Almanac

Astronomy

Feb. 27, 2015 Rise Set
Actual Time
Civil Twilight
Nautical Twilight
Astronomical Twilight
Moon
Length of Visible Light
Length of Day
Tomorrow will be .
, % of the Moon is Illuminated

Today's Extremes

State Highs State Lows

Community

WunderPhotos

Upload Photos

1,800,973 photos uploaded!

WunderBlogs® & News

Nearby

Air Quality

  Air Quality AQ Index Pollutant
Not available.

Snow Depth

Station Depth Elevation

Earthquake Activity

City Distance Mag. Time & Date
Minimum magnitude displayed is 2.5.

Coastal Water Temperatures

Place Temperature

Nearby Weather Stations